Terminal Aerodrome Forecast
Issued by NWS Cleveland, OH

Home | Current Version | Previous Version | Graphics & Text | Print | Product List | Glossary On
Versions: 1 2 3 4 5 6 7 8 9 10 11 12 13 14 15 16 17 18 19 20 21 22
000
FTUS41 KCLE 140100 AAA
TAFMFD
TAF AMD
KMFD 140115Z 1401/1424 18009KT P6SM SCT070 SCT200 WS010/21040KT
     FM141100 21020G30KT 6SM -SHRA BKN040 OVC120 WS015/21045KT
     FM141500 20022G32KT 5SM -SHRA VCTS BKN030CB OVC080
     FM141800 21022G33KT 4SM SHRA BR VCTS OVC025CB
     FM142300 29013KT 5SM -SHRA BR OVC020=

USA.gov is the U.S. government's official web portal to all federal, state and local government web resources and services.